Time;durP1;ratioP1;P1;durP2;ratioP2;P2;SDS_P1;SDS_P2;PMS_P1;PMS_P2;Temp;Humidity;BMP_temperature;BMP_pressure;BME280_temperature;BME280_humidity;BME280_pressure;Samples;Min_cycle;Max_cycle;Signal;HPM_P1;HPM_P2
2022/05/27 00:02:14;;;;;;;;;;;23.00;47.30;;;;;;5072736;28;20293;-59
2022/05/27 00:04:40;;;;;;;;;;;23.00;47.40;;;;;;5072801;28;19912;-60
2022/05/27 00:07:05;;;;;;;;;;;23.00;47.30;;;;;;5072798;28;19916;-59
2022/05/27 00:09:30;;;;;;;;;;;23.00;47.30;;;;;;5071768;28;20007;-60
2022/05/27 00:11:56;;;;;;;;;;;23.00;47.40;;;;;;5071591;28;19909;-60
2022/05/27 00:14:22;;;;;;;;;;;22.90;47.30;;;;;;5071476;28;19909;-60
2022/05/27 00:16:47;;;;;;;;;;;22.90;47.40;;;;;;5071325;28;19952;-60
2022/05/27 00:19:12;;;;;;;;;;;22.90;47.40;;;;;;5072742;28;19915;-60
2022/05/27 00:21:38;;;;;;;;;;;23.00;47.30;;;;;;5071303;28;19913;-59
2022/05/27 00:24:04;;;;;;;;;;;23.00;47.30;;;;;;5072712;28;19975;-60
2022/05/27 00:26:29;;;;;;;;;;;23.00;47.30;;;;;;5071429;28;19916;-60
2022/05/27 00:28:54;;;;;;;;;;;22.90;47.20;;;;;;5071371;28;20283;-59
2022/05/27 00:31:20;;;;;;;;;;;22.90;47.20;;;;;;5071393;28;19908;-60
2022/05/27 00:33:46;;;;;;;;;;;22.90;47.20;;;;;;5072529;28;19916;-60
2022/05/27 00:36:11;;;;;;;;;;;23.00;47.20;;;;;;5072540;28;20355;-59
2022/05/27 00:38:37;;;;;;;;;;;22.90;47.20;;;;;;5072775;28;20269;-60
2022/05/27 00:41:02;;;;;;;;;;;22.90;47.20;;;;;;5071259;28;19912;-60
2022/05/27 00:43:28;;;;;;;;;;;22.90;47.30;;;;;;5074340;28;19919;-60
2022/05/27 00:45:57;;;;;;;;;;;22.90;47.30;;;;;;5076113;28;19912;-59
2022/05/27 00:48:23;;;;;;;;;;;22.90;47.50;;;;;;5075196;28;19909;-60
2022/05/27 00:50:48;;;;;;;;;;;22.90;47.40;;;;;;5058039;28;19932;-59
2022/05/27 00:53:15;;;;;;;;;;;22.90;47.40;;;;;;5074911;28;19909;-60
2022/05/27 00:55:42;;;;;;;;;;;22.90;47.30;;;;;;5058095;28;20405;-60
2022/05/27 00:58:12;;;;;;;;;;;22.90;47.40;;;;;;5074756;28;19908;-60
2022/05/27 01:00:37;;;;;;;;;;;22.90;47.50;;;;;;5075856;28;19913;-60
2022/05/27 01:03:03;;;;;;;;;;;22.90;47.40;;;;;;5075940;28;19912;-60
2022/05/27 01:05:29;;;;;;;;;;;22.90;47.60;;;;;;5074535;28;20013;-60
2022/05/27 01:07:58;;;;;;;;;;;22.90;47.50;;;;;;5076161;28;19911;-60
2022/05/27 01:10:24;;;;;;;;;;;22.80;47.20;;;;;;5075820;28;19912;-59
2022/05/27 01:12:49;;;;;;;;;;;22.90;47.50;;;;;;5074484;28;20324;-60
2022/05/27 01:15:17;;;;;;;;;;;22.90;47.20;;;;;;5075394;28;19908;-60
2022/05/27 01:18:01;;;;;;;;;;;22.80;47.20;;;;;;5075661;28;19913;-60
2022/05/27 01:20:29;;;;;;;;;;;22.80;47.30;;;;;;5075501;28;20386;-60
2022/05/27 01:23:14;;;;;;;;;;;22.80;47.20;;;;;;5075544;28;19908;-60
2022/05/27 01:26:05;;;;;;;;;;;22.80;47.20;;;;;;5075530;28;19908;-60
2022/05/27 01:28:38;;;;;;;;;;;22.80;47.40;;;;;;5044572;28;20368;-59
2022/05/27 01:31:04;;;;;;;;;;;22.70;47.20;;;;;;5074234;28;19918;-60
2022/05/27 01:33:29;;;;;;;;;;;22.70;47.40;;;;;;5075256;28;19999;-60
2022/05/27 01:36:09;;;;;;;;;;;22.70;47.20;;;;;;5075257;28;19908;-60
2022/05/27 01:38:36;;;;;;;;;;;22.70;47.30;;;;;;5074234;28;19924;-60
2022/05/27 01:41:31;;;;;;;;;;;22.70;47.50;;;;;;5075151;28;19927;-60
2022/05/27 01:43:59;;;;;;;;;;;22.70;47.40;;;;;;5003391;28;19914;-60
2022/05/27 01:46:37;;;;;;;;;;;22.70;47.40;;;;;;5057405;28;19913;-60
2022/05/27 01:49:22;;;;;;;;;;;22.70;47.20;;;;;;5057109;28;19908;-60
2022/05/27 01:52:02;;;;;;;;;;;22.70;47.30;;;;;;5074977;28;19920;-60
2022/05/27 01:54:46;;;;;;;;;;;22.70;47.30;;;;;;5056608;28;19908;-60
2022/05/27 01:57:13;;;;;;;;;;;22.70;47.30;;;;;;5074920;28;20292;-60
2022/05/27 01:59:56;;;;;;;;;;;22.70;47.40;;;;;;5056960;28;19909;-60
2022/05/27 02:02:22;;;;;;;;;;;22.70;47.20;;;;;;5073524;28;19957;-60
2022/05/27 02:04:51;;;;;;;;;;;22.70;47.40;;;;;;5073302;28;19917;-60
2022/05/27 02:07:21;;;;;;;;;;;22.70;47.20;;;;;;5073937;28;19915;-60
2022/05/27 02:09:48;;;;;;;;;;;22.70;47.30;;;;;;5073625;28;19909;-60
2022/05/27 02:12:17;;;;;;;;;;;22.70;47.30;;;;;;5073361;28;19948;-59
2022/05/27 02:14:47;;;;;;;;;;;22.70;47.30;;;;;;5073398;28;20009;-60
2022/05/27 02:17:16;;;;;;;;;;;22.70;47.40;;;;;;5073174;28;19928;-60
2022/05/27 02:19:44;;;;;;;;;;;22.70;47.30;;;;;;5073158;28;19909;-60
2022/05/27 02:22:14;;;;;;;;;;;22.70;47.30;;;;;;5074567;28;19912;-60
2022/05/27 02:24:42;;;;;;;;;;;22.70;47.20;;;;;;5073116;28;19934;-60
2022/05/27 02:27:15;;;;;;;;;;;22.60;47.10;;;;;;5073113;28;19908;-60
2022/05/27 02:29:45;;;;;;;;;;;22.60;47.20;;;;;;5072981;28;19908;-60
2022/05/27 02:32:12;;;;;;;;;;;22.60;47.30;;;;;;5073091;28;20360;-60
2022/05/27 02:35:07;;;;;;;;;;;22.60;47.10;;;;;;5074180;28;19912;-60
2022/05/27 02:37:40;;;;;;;;;;;22.60;47.20;;;;;;5073094;28;19915;-60
2022/05/27 02:40:07;;;;;;;;;;;22.60;47.20;;;;;;5072806;28;19908;-60
2022/05/27 02:42:51;;;;;;;;;;;22.60;47.10;;;;;;5074135;28;19909;-60
2022/05/27 02:45:24;;;;;;;;;;;22.60;47.20;;;;;;5072596;28;19908;-60
2022/05/27 02:47:52;;;;;;;;;;;22.60;47.20;;;;;;5074111;28;19973;-60
2022/05/27 02:50:37;;;;;;;;;;;22.60;47.10;;;;;;5072826;28;19908;-59
2022/05/27 02:53:11;;;;;;;;;;;22.60;47.20;;;;;;5073776;28;20283;-59
2022/05/27 02:55:49;;;;;;;;;;;22.60;47.20;;;;;;5072402;28;19909;-60
2022/05/27 02:58:14;;;;;;;;;;;22.60;47.00;;;;;;5073801;28;19916;-59
2022/05/27 03:00:40;;;;;;;;;;;22.60;47.00;;;;;;5073507;28;20329;-60
2022/05/27 03:03:06;;;;;;;;;;;22.60;47.10;;;;;;5072283;28;19915;-60
2022/05/27 03:05:37;;;;;;;;;;;22.60;46.90;;;;;;5072833;28;19908;-60
2022/05/27 03:08:05;;;;;;;;;;;22.60;47.00;;;;;;5073817;28;20287;-60
2022/05/27 03:11:09;;;;;;;;;;;22.60;47.10;;;;;;5072287;28;20042;-60
2022/05/27 03:13:44;;;;;;;;;;;22.60;47.00;;;;;;4991930;28;20370;-60
2022/05/27 03:16:10;;;;;;;;;;;22.60;47.00;;;;;;4991909;28;19929;-59
2022/05/27 03:18:42;;;;;;;;;;;22.60;47.00;;;;;;5035089;28;19956;-60
2022/05/27 03:21:10;;;;;;;;;;;22.60;47.00;;;;;;5072116;28;19912;-60
2022/05/27 03:23:45;;;;;;;;;;;22.60;47.10;;;;;;5072050;28;19988;-60
2022/05/27 03:26:15;;;;;;;;;;;22.60;47.00;;;;;;5073277;28;20391;-60
2022/05/27 03:28:46;;;;;;;;;;;22.60;47.00;;;;;;5073147;28;19908;-60
2022/05/27 03:31:13;;;;;;;;;;;22.60;47.00;;;;;;5073152;28;20005;-59
2022/05/27 03:33:48;;;;;;;;;;;22.60;47.00;;;;;;5071942;28;19908;-59
2022/05/27 03:36:16;;;;;;;;;;;22.60;47.00;;;;;;5073224;28;19909;-59
2022/05/27 03:38:45;;;;;;;;;;;22.60;46.90;;;;;;5072022;28;20188;-60
2022/05/27 03:41:12;;;;;;;;;;;22.50;46.90;;;;;;5072921;28;19959;-60
2022/05/27 03:43:37;;;;;;;;;;;22.50;46.90;;;;;;5071805;28;19908;-60
2022/05/27 03:46:03;;;;;;;;;;;22.50;46.80;;;;;;5071851;28;20264;-60
2022/05/27 03:48:29;;;;;;;;;;;22.50;46.80;;;;;;5071708;28;20001;-60
2022/05/27 03:50:58;;;;;;;;;;;22.50;46.80;;;;;;5072876;28;19917;-60
2022/05/27 03:54:03;;;;;;;;;;;22.50;46.80;;;;;;5072925;28;19908;-60
2022/05/27 03:56:09;;;;;;;;;;;22.50;46.80;;;;;;5071841;28;19936;-60
2022/05/27 03:58:34;;;;;;;;;;;22.50;46.80;;;;;;5072880;28;19943;-59
2022/05/27 04:01:00;;;;;;;;;;;22.60;46.70;;;;;;5072806;28;19946;-59
2022/05/27 04:03:25;;;;;;;;;;;22.50;46.60;;;;;;5072784;28;19909;-60
2022/05/27 04:05:51;;;;;;;;;;;22.60;46.70;;;;;;5072868;28;19913;-60
2022/05/27 04:08:16;;;;;;;;;;;22.50;46.60;;;;;;5073140;28;19908;-60
2022/05/27 04:10:42;;;;;;;;;;;22.50;46.60;;;;;;5072728;28;20390;-59
2022/05/27 04:13:07;;;;;;;;;;;22.50;46.50;;;;;;5071608;28;20474;-60
2022/05/27 04:15:32;;;;;;;;;;;22.50;46.50;;;;;;5071593;28;19943;-60
2022/05/27 04:17:58;;;;;;;;;;;22.50;46.50;;;;;;5075522;28;19920;-60
2022/05/27 04:20:23;;;;;;;;;;;22.50;46.50;;;;;;5075386;28;20432;-59
2022/05/27 04:22:51;;;;;;;;;;;22.60;46.60;;;;;;5076625;28;19979;-60
2022/05/27 04:25:17;;;;;;;;;;;22.50;46.50;;;;;;5076688;28;20364;-60
2022/05/27 04:27:42;;;;;;;;;;;22.50;46.50;;;;;;5076890;28;19915;-60
2022/05/27 04:30:08;;;;;;;;;;;22.60;46.60;;;;;;5076497;28;20007;-60
2022/05/27 04:32:33;;;;;;;;;;;22.60;46.60;;;;;;5075096;28;19962;-60
2022/05/27 04:34:59;;;;;;;;;;;22.60;46.60;;;;;;5076410;28;19909;-60
2022/05/27 04:37:24;;;;;;;;;;;22.60;46.60;;;;;;5076402;28;19908;-60
2022/05/27 04:39:50;;;;;;;;;;;22.60;46.60;;;;;;5076507;28;19908;-60
2022/05/27 04:42:15;;;;;;;;;;;22.60;46.60;;;;;;5076194;28;19948;-60
2022/05/27 04:44:41;;;;;;;;;;;22.60;46.60;;;;;;5076135;28;20422;-60
2022/05/27 04:47:07;;;;;;;;;;;22.60;46.60;;;;;;5058410;28;19915;-59
2022/05/27 04:49:52;;;;;;;;;;;22.60;46.50;;;;;;5076103;28;19913;-60
2022/05/27 04:52:21;;;;;;;;;;;22.60;46.60;;;;;;5075103;28;19909;-60
2022/05/27 04:54:47;;;;;;;;;;;22.60;46.40;;;;;;5076029;28;20346;-60
2022/05/27 04:57:34;;;;;;;;;;;22.60;46.40;;;;;;5075588;28;21501;-60
2022/05/27 05:00:00;;;;;;;;;;;22.60;46.40;;;;;;5075530;28;20003;-60
2022/05/27 05:02:26;;;;;;;;;;;22.60;46.30;;;;;;5075780;28;19913;-60
2022/05/27 05:04:51;;;;;;;;;;;22.60;46.30;;;;;;5074591;28;19962;-59
2022/05/27 05:07:19;;;;;;;;;;;22.60;46.30;;;;;;5074839;28;19908;-59
2022/05/27 05:09:44;;;;;;;;;;;22.60;46.30;;;;;;5076108;28;19913;-60
2022/05/27 05:12:10;;;;;;;;;;;22.60;46.30;;;;;;5075692;28;19958;-59
2022/05/27 05:14:36;;;;;;;;;;;22.60;46.30;;;;;;5057777;28;19955;-60
2022/05/27 05:17:01;;;;;;;;;;;22.60;46.20;;;;;;5075573;28;19920;-60
2022/05/27 05:19:26;;;;;;;;;;;22.60;46.10;;;;;;5075600;28;19912;-59
2022/05/27 05:21:53;;;;;;;;;;;22.60;46.10;;;;;;5075503;28;20007;-60
2022/05/27 05:24:18;;;;;;;;;;;22.60;46.20;;;;;;5075513;28;20372;-59
2022/05/27 05:26:43;;;;;;;;;;;22.60;46.20;;;;;;5057421;28;19919;-59
2022/05/27 05:29:09;;;;;;;;;;;22.60;46.20;;;;;;5073434;28;19915;-59
2022/05/27 05:31:34;;;;;;;;;;;22.60;46.10;;;;;;5075373;28;20003;-60
2022/05/27 05:34:00;;;;;;;;;;;22.50;46.10;;;;;;5075304;28;20375;-60
2022/05/27 05:36:26;;;;;;;;;;;22.50;46.10;;;;;;5075387;28;19909;-60
2022/05/27 05:38:51;;;;;;;;;;;22.50;46.10;;;;;;5075596;28;20376;-60
2022/05/27 05:41:26;;;;;;;;;;;22.60;46.00;;;;;;5075166;28;19912;-59
2022/05/27 05:43:51;;;;;;;;;;;22.60;46.00;;;;;;5075132;28;19970;-59
2022/05/27 05:46:17;;;;;;;;;;;22.60;46.00;;;;;;5075222;28;20375;-60
2022/05/27 05:48:42;;;;;;;;;;;22.50;45.90;;;;;;5074953;28;19909;-60
2022/05/27 05:51:08;;;;;;;;;;;22.60;45.90;;;;;;5075080;28;19908;-60
2022/05/27 05:53:33;;;;;;;;;;;22.50;45.80;;;;;;5074900;28;19926;-60
2022/05/27 05:55:59;;;;;;;;;;;22.60;45.80;;;;;;5074932;28;20004;-59
2022/05/27 05:58:24;;;;;;;;;;;22.60;45.80;;;;;;5073737;28;19912;-60
2022/05/27 06:00:49;;;;;;;;;;;22.60;45.80;;;;;;5074755;28;19912;-59
2022/05/27 06:03:15;;;;;;;;;;;22.50;45.70;;;;;;5074717;28;20420;-59
2022/05/27 06:05:42;;;;;;;;;;;22.50;45.70;;;;;;5073535;28;19915;-60
2022/05/27 06:08:08;;;;;;;;;;;22.50;45.70;;;;;;5075031;28;19909;-60
2022/05/27 06:10:33;;;;;;;;;;;22.60;45.70;;;;;;5074643;28;19979;-59
2022/05/27 06:12:59;;;;;;;;;;;22.60;45.70;;;;;;5074550;28;19934;-60
2022/05/27 06:15:24;;;;;;;;;;;22.50;45.70;;;;;;5074485;28;19912;-60
2022/05/27 06:17:50;;;;;;;;;;;22.50;45.60;;;;;;5074753;28;19923;-60
2022/05/27 06:20:15;;;;;;;;;;;22.50;45.50;;;;;;5074415;28;19908;-60
2022/05/27 06:22:41;;;;;;;;;;;22.50;45.50;;;;;;5073052;28;20305;-60
2022/05/27 06:25:07;;;;;;;;;;;22.50;45.50;;;;;;5074312;28;19923;-59
2022/05/27 06:27:32;;;;;;;;;;;22.50;45.60;;;;;;5074275;28;19940;-60
2022/05/27 06:35:26;;;;;;;;;;;22.50;45.40;;;;;;5074271;28;20011;-60
2022/05/27 06:37:51;;;;;;;;;;;22.60;45.40;;;;;;5074347;28;20355;-60
2022/05/27 06:40:17;;;;;;;;;;;22.50;45.40;;;;;;5072872;28;19920;-59
2022/05/27 06:42:43;;;;;;;;;;;22.50;45.30;;;;;;5073982;28;19999;-60
2022/05/27 06:45:09;;;;;;;;;;;22.60;45.40;;;;;;5072683;28;19955;-60
2022/05/27 06:47:36;;;;;;;;;;;22.50;45.30;;;;;;5073906;28;19931;-59
2022/05/27 06:50:01;;;;;;;;;;;22.50;45.30;;;;;;5074060;28;20046;-59
2022/05/27 06:52:27;;;;;;;;;;;22.50;45.30;;;;;;5073755;28;20059;-60
2022/05/27 06:54:52;;;;;;;;;;;22.50;45.90;;;;;;5073677;28;19908;-60
2022/05/27 06:57:18;;;;;;;;;;;22.50;45.20;;;;;;5055962;28;19908;-60
2022/05/27 06:59:43;;;;;;;;;;;22.50;45.20;;;;;;5073608;28;20362;-60
2022/05/27 07:02:09;;;;;;;;;;;22.50;45.90;;;;;;5072310;28;19912;-60
2022/05/27 07:04:34;;;;;;;;;;;22.50;45.20;;;;;;5073586;28;19920;-60
2022/05/27 07:07:00;;;;;;;;;;;22.60;45.10;;;;;;5073594;28;19913;-60
2022/05/27 07:09:26;;;;;;;;;;;22.60;45.10;;;;;;5073751;28;19909;-60
2022/05/27 07:11:52;;;;;;;;;;;22.50;45.00;;;;;;5073511;28;19909;-60
2022/05/27 07:14:17;;;;;;;;;;;22.50;45.00;;;;;;5072227;28;19908;-60
2022/05/27 07:16:43;;;;;;;;;;;22.50;44.90;;;;;;5073301;28;19970;-60
2022/05/27 07:19:09;;;;;;;;;;;22.50;45.00;;;;;;5073292;28;19908;-60
2022/05/27 07:21:39;;;;;;;;;;;22.50;45.00;;;;;;5055166;28;20095;-60
2022/05/27 07:24:05;;;;;;;;;;;22.50;45.00;;;;;;5073336;28;19916;-60
2022/05/27 07:26:31;;;;;;;;;;;22.50;45.70;;;;;;5073096;28;19938;-60
2022/05/27 07:28:56;;;;;;;;;;;22.50;44.90;;;;;;5073265;28;19909;-60
2022/05/27 07:31:22;;;;;;;;;;;22.50;44.90;;;;;;5071842;28;19909;-60
2022/05/27 07:33:47;;;;;;;;;;;22.50;44.90;;;;;;5071784;28;19916;-60
2022/05/27 07:36:13;;;;;;;;;;;22.50;44.90;;;;;;5073201;28;19908;-60
2022/05/27 07:38:38;;;;;;;;;;;22.50;44.80;;;;;;5052131;28;19958;-60
2022/05/27 07:41:04;;;;;;;;;;;22.50;44.70;;;;;;5068459;28;19966;-60
2022/05/27 07:43:29;;;;;;;;;;;22.50;44.70;;;;;;5053144;28;19916;-60
2022/05/27 07:45:56;;;;;;;;;;;22.50;44.60;;;;;;5053064;28;20003;-60
2022/05/27 07:48:22;;;;;;;;;;;22.50;44.60;;;;;;5068345;28;20377;-60
2022/05/27 07:50:47;;;;;;;;;;;22.50;44.60;;;;;;5052683;28;19935;-60
2022/05/27 07:53:13;;;;;;;;;;;22.50;44.70;;;;;;5052967;28;19987;-60
2022/05/27 07:55:38;;;;;;;;;;;22.50;44.70;;;;;;5052893;28;19931;-60
2022/05/27 07:58:04;;;;;;;;;;;22.50;44.80;;;;;;5052877;28;19913;-60
2022/05/27 08:00:30;;;;;;;;;;;22.50;44.60;;;;;;5053052;28;20007;-60
2022/05/27 08:02:56;;;;;;;;;;;22.50;44.40;;;;;;5052722;28;20011;-61
2022/05/27 08:05:22;;;;;;;;;;;22.50;44.30;;;;;;5052728;28;19948;-60
2022/05/27 08:07:47;;;;;;;;;;;22.50;44.40;;;;;;5055171;28;19916;-60
2022/05/27 08:10:14;;;;;;;;;;;22.50;44.40;;;;;;5071429;28;19909;-61
2022/05/27 08:12:40;;;;;;;;;;;22.50;44.30;;;;;;5072728;28;20003;-60
2022/05/27 08:15:06;;;;;;;;;;;22.50;44.30;;;;;;5071478;28;20347;-60
2022/05/27 08:17:31;;;;;;;;;;;22.50;44.30;;;;;;5071407;28;19986;-60
2022/05/27 08:19:57;;;;;;;;;;;22.50;44.30;;;;;;5072760;28;20356;-60
2022/05/27 08:22:23;;;;;;;;;;;22.50;44.20;;;;;;5072975;28;19920;-60
2022/05/27 08:24:48;;;;;;;;;;;22.60;44.20;;;;;;5072580;28;19923;-60
2022/05/27 08:27:14;;;;;;;;;;;22.60;44.20;;;;;;5054713;28;19918;-60
2022/05/27 08:29:40;;;;;;;;;;;22.60;44.10;;;;;;5071411;28;19908;-60
2022/05/27 08:32:05;;;;;;;;;;;22.60;44.00;;;;;;5071285;28;20372;-60
2022/05/27 08:40:01;;;;;;;;;;;22.60;43.80;;;;;;5072351;28;19955;-60
2022/05/27 08:42:45;;;;;;;;;;;22.60;43.80;;;;;;5071530;28;19995;-60
2022/05/27 08:45:12;;;;;;;;;;;22.60;43.70;;;;;;5071188;28;20011;-60
2022/05/27 08:47:39;;;;;;;;;;;22.60;43.70;;;;;;5071089;28;19916;-60
2022/05/27 08:50:10;;;;;;;;;;;22.60;43.50;;;;;;5054488;28;19917;-60
2022/05/27 08:52:40;;;;;;;;;;;22.60;43.40;;;;;;5054341;28;19915;-60
2022/05/27 08:59:26;;;;;;;;;;;22.60;43.30;;;;;;5072352;28;20007;-62
2022/05/27 09:00:37;;;;;;;;;;;22.70;43.50;;;;;;5072193;28;19914;-61
2022/05/27 09:03:04;;;;;;;;;;;22.70;43.30;;;;;;5073215;28;19967;-61
2022/05/27 09:05:39;;;;;;;;;;;22.70;43.20;;;;;;5075830;28;20003;-60
2022/05/27 09:08:07;;;;;;;;;;;22.70;43.10;;;;;;5074989;28;20336;-60
2022/05/27 09:10:53;;;;;;;;;;;22.60;43.70;;;;;;5075694;28;19999;-60
2022/05/27 09:13:22;;;;;;;;;;;22.70;43.00;;;;;;5061591;28;19908;-60
2022/05/27 09:16:04;;;;;;;;;;;22.70;43.00;;;;;;5075580;28;19920;-60
2022/05/27 09:18:30;;;;;;;;;;;22.70;43.20;;;;;;5075620;28;19912;-61
2022/05/27 09:21:14;;;;;;;;;;;22.70;43.50;;;;;;5075377;28;19935;-60
2022/05/27 09:23:46;;;;;;;;;;;22.60;43.40;;;;;;5075462;28;19912;-60
2022/05/27 09:26:19;;;;;;;;;;;22.60;43.10;;;;;;5074360;28;19958;-61
2022/05/27 09:28:48;;;;;;;;;;;22.60;43.00;;;;;;5075404;28;19916;-60
2022/05/27 09:31:14;;;;;;;;;;;22.60;42.90;;;;;;5075420;28;19908;-60
2022/05/27 09:33:40;;;;;;;;;;;22.60;43.20;;;;;;5074190;28;20303;-60
2022/05/27 09:36:06;;;;;;;;;;;22.60;42.90;;;;;;5075382;28;19908;-61
2022/05/27 09:38:33;;;;;;;;;;;22.60;43.30;;;;;;5075544;28;19999;-60
2022/05/27 09:41:01;;;;;;;;;;;22.60;43.30;;;;;;5075162;28;19912;-61
2022/05/27 09:43:29;;;;;;;;;;;22.60;43.20;;;;;;5074160;28;19915;-60
2022/05/27 09:45:56;;;;;;;;;;;22.60;43.30;;;;;;5075283;28;19912;-61
2022/05/27 09:48:22;;;;;;;;;;;22.50;43.20;;;;;;5057266;28;19908;-61
2022/05/27 09:50:47;;;;;;;;;;;22.50;43.40;;;;;;5075195;28;19975;-61
2022/05/27 09:53:18;;;;;;;;;;;22.50;43.50;;;;;;5075282;28;19931;-61
2022/05/27 09:55:48;;;;;;;;;;;22.50;43.50;;;;;;5057067;28;19913;-61
2022/05/27 09:58:14;;;;;;;;;;;22.50;43.50;;;;;;5074939;28;19974;-61
2022/05/27 10:00:46;;;;;;;;;;;22.50;43.20;;;;;;5056655;28;19916;-61
2022/05/27 10:03:22;;;;;;;;;;;22.50;43.30;;;;;;5073503;28;19958;-62
2022/05/27 10:05:51;;;;;;;;;;;22.50;43.50;;;;;;5074853;28;19915;-61
2022/05/27 10:08:36;;;;;;;;;;;22.50;43.50;;;;;;5073742;28;20265;-61
2022/05/27 10:11:17;;;;;;;;;;;22.50;43.60;;;;;;5074844;28;19914;-61
2022/05/27 10:13:43;;;;;;;;;;;22.50;43.40;;;;;;5072973;28;19909;-61
2022/05/27 10:16:13;;;;;;;;;;;22.50;43.40;;;;;;5073431;28;19969;-61
2022/05/27 10:18:39;;;;;;;;;;;22.50;43.40;;;;;;5074478;28;19908;-61
2022/05/27 10:21:05;;;;;;;;;;;22.50;43.20;;;;;;5074340;28;20003;-61
2022/05/27 10:23:32;;;;;;;;;;;22.60;43.00;;;;;;5074314;28;20352;-61
2022/05/27 10:25:58;;;;;;;;;;;22.60;43.10;;;;;;5074647;28;19909;-61
2022/05/27 10:28:25;;;;;;;;;;;22.60;42.80;;;;;;5074357;28;20368;-61
2022/05/27 10:30:52;;;;;;;;;;;22.60;43.10;;;;;;5073130;28;19931;-61
2022/05/27 10:33:21;;;;;;;;;;;22.60;43.20;;;;;;5074326;28;20261;-61
2022/05/27 10:35:47;;;;;;;;;;;22.60;43.30;;;;;;5074127;28;20003;-61
2022/05/27 10:38:31;;;;;;;;;;;22.50;43.30;;;;;;5073384;28;19997;-60
2022/05/27 10:41:15;;;;;;;;;;;22.50;43.40;;;;;;5074012;28;20433;-61
2022/05/27 10:43:46;;;;;;;;;;;22.50;43.50;;;;;;5072702;28;19908;-61
2022/05/27 10:46:15;;;;;;;;;;;22.50;43.60;;;;;;5072801;28;19915;-61
2022/05/27 10:48:46;;;;;;;;;;;22.50;43.80;;;;;;5073875;28;19909;-61
2022/05/27 10:51:18;;;;;;;;;;;22.40;43.70;;;;;;5073850;28;19958;-61
2022/05/27 10:54:03;;;;;;;;;;;22.50;43.40;;;;;;5072551;28;19908;-60
2022/05/27 10:56:31;;;;;;;;;;;22.40;43.20;;;;;;5072549;28;19909;-60
2022/05/27 11:02:07;;;;;;;;;;;22.50;43.10;;;;;;5072552;28;20444;-61
2022/05/27 11:04:45;;;;;;;;;;;22.60;42.60;;;;;;5073541;28;19935;-60
2022/05/27 11:07:16;;;;;;;;;;;22.60;42.70;;;;;;5072364;28;19913;-61
2022/05/27 11:09:45;;;;;;;;;;;22.70;42.80;;;;;;5072494;28;20265;-61
2022/05/27 11:15:10;;;;;;;;;;;22.70;42.90;;;;;;5072218;28;20007;-61
2022/05/27 11:15:26;;;;;;;;;;;22.70;42.90;;;;;;5073250;28;20367;-61
2022/05/27 11:17:57;;;;;;;;;;;22.60;43.10;;;;;;5072158;28;19912;-61
2022/05/27 11:20:41;;;;;;;;;;;22.60;43.40;;;;;;5073211;28;19966;-60
2022/05/27 11:23:19;;;;;;;;;;;22.60;43.50;;;;;;5055259;28;19914;-61
2022/05/27 11:26:03;;;;;;;;;;;22.60;43.40;;;;;;5071365;28;20389;-61
2022/05/27 11:28:44;;;;;;;;;;;22.60;43.40;;;;;;5073218;28;19989;-61
2022/05/27 11:31:12;;;;;;;;;;;22.60;43.10;;;;;;5073210;28;19983;-61
2022/05/27 11:33:39;;;;;;;;;;;22.60;43.30;;;;;;5055302;28;20357;-61
2022/05/27 11:36:27;;;;;;;;;;;22.60;43.30;;;;;;5072010;28;19958;-60
2022/05/27 11:38:53;;;;;;;;;;;22.60;43.10;;;;;;5072233;28;19916;-61
2022/05/27 11:41:20;;;;;;;;;;;22.70;43.10;;;;;;5073141;28;19913;-60
2022/05/27 11:43:46;;;;;;;;;;;22.70;43.30;;;;;;5071819;28;19958;-61
2022/05/27 11:46:25;;;;;;;;;;;22.70;43.60;;;;;;5071966;28;19912;-60
2022/05/27 11:48:57;;;;;;;;;;;22.60;43.60;;;;;;5071707;28;19909;-61
2022/05/27 11:51:48;;;;;;;;;;;22.60;43.80;;;;;;5073011;28;19908;-61
2022/05/27 11:54:27;;;;;;;;;;;22.60;43.80;;;;;;5068978;28;19913;-61
2022/05/27 11:56:55;;;;;;;;;;;22.60;43.60;;;;;;5072961;28;19948;-61
2022/05/27 11:59:25;;;;;;;;;;;22.60;43.50;;;;;;5072889;28;19908;-61
2022/05/27 12:01:59;;;;;;;;;;;22.70;43.20;;;;;;5071638;28;19949;-61
2022/05/27 12:04:34;;;;;;;;;;;22.70;43.50;;;;;;5071581;28;19919;-61
2022/05/27 12:07:11;;;;;;;;;;;22.60;43.60;;;;;;5071860;28;19908;-61
2022/05/27 12:09:43;;;;;;;;;;;22.60;43.90;;;;;;5073017;28;19916;-60
2022/05/27 12:12:10;;;;;;;;;;;22.50;44.00;;;;;;5071686;28;20426;-61
2022/05/27 12:14:37;;;;;;;;;;;22.50;44.10;;;;;;5071603;28;19924;-61
2022/05/27 12:17:03;;;;;;;;;;;22.50;44.30;;;;;;5072607;28;20000;-61
2022/05/27 12:19:31;;;;;;;;;;;22.40;44.30;;;;;;5072656;28;20365;-60
2022/05/27 12:21:59;;;;;;;;;;;22.50;44.40;;;;;;5071417;28;19944;-61
2022/05/27 12:24:41;;;;;;;;;;;22.50;44.10;;;;;;5072623;28;19909;-60
2022/05/27 12:27:07;;;;;;;;;;;22.60;44.10;;;;;;5071515;28;19915;-61
2022/05/27 12:29:32;;;;;;;;;;;22.50;44.20;;;;;;5071476;28;19912;-61
2022/05/27 12:31:58;;;;;;;;;;;22.50;44.30;;;;;;5071352;28;19908;-61
2022/05/27 12:34:26;;;;;;;;;;;22.50;44.80;;;;;;5072489;28;19956;-61
2022/05/27 12:36:54;;;;;;;;;;;22.50;44.30;;;;;;5073022;28;19913;-61
2022/05/27 12:39:23;;;;;;;;;;;22.50;44.20;;;;;;5076814;28;19987;-60
2022/05/27 12:41:49;;;;;;;;;;;22.50;44.30;;;;;;5076224;28;19920;-61
2022/05/27 12:44:20;;;;;;;;;;;22.50;44.50;;;;;;5075164;28;20425;-60
2022/05/27 12:46:46;;;;;;;;;;;22.50;44.50;;;;;;5076177;28;19963;-61
2022/05/27 12:49:17;;;;;;;;;;;22.50;44.50;;;;;;5076217;28;19909;-60
2022/05/27 12:51:44;;;;;;;;;;;22.60;44.20;;;;;;5076076;28;20280;-61
2022/05/27 12:54:09;;;;;;;;;;;22.60;44.20;;;;;;5076041;28;19957;-61
2022/05/27 13:02:22;;;;;;;;;;;22.60;44.00;;;;;;5082641;28;19918;-61
2022/05/27 13:04:49;;;;;;;;;;;22.60;43.90;;;;;;5075778;28;20002;-61
2022/05/27 13:07:15;;;;;;;;;;;22.60;43.90;;;;;;5074665;28;19999;-61
2022/05/27 13:09:42;;;;;;;;;;;22.60;44.10;;;;;;5074937;28;19956;-61
2022/05/27 13:12:09;;;;;;;;;;;22.50;44.10;;;;;;5076073;28;20344;-61
2022/05/27 13:14:38;;;;;;;;;;;22.50;44.20;;;;;;5074468;28;19912;-61
2022/05/27 13:17:04;;;;;;;;;;;22.50;44.20;;;;;;5075553;28;19920;-60
2022/05/27 13:19:44;;;;;;;;;;;22.50;44.20;;;;;;5075800;28;20007;-61
2022/05/27 13:22:17;;;;;;;;;;;22.60;44.30;;;;;;5075495;28;19947;-61
2022/05/27 13:24:44;;;;;;;;;;;22.60;44.10;;;;;;5074242;28;19912;-61
2022/05/27 13:27:14;;;;;;;;;;;22.60;44.10;;;;;;5074725;28;20614;-61
2022/05/27 13:29:56;;;;;;;;;;;22.60;43.70;;;;;;5074354;28;19912;-61
2022/05/27 13:32:22;;;;;;;;;;;22.60;43.90;;;;;;5074069;28;20428;-61
2022/05/27 13:34:51;;;;;;;;;;;22.60;43.70;;;;;;5074155;28;20007;-61
2022/05/27 13:37:19;;;;;;;;;;;22.60;43.70;;;;;;5074163;28;19908;-61
2022/05/27 13:39:47;;;;;;;;;;;22.60;43.80;;;;;;5074344;28;19916;-61
2022/05/27 13:42:16;;;;;;;;;;;22.60;44.00;;;;;;5075175;28;19991;-61
2022/05/27 13:44:42;;;;;;;;;;;22.60;44.10;;;;;;5073922;28;19916;-61
2022/05/27 13:47:07;;;;;;;;;;;22.60;44.10;;;;;;5074018;28;19909;-61
2022/05/27 13:49:37;;;;;;;;;;;22.60;44.20;;;;;;5074477;28;20002;-61
2022/05/27 13:52:18;;;;;;;;;;;22.60;44.00;;;;;;5075160;28;20422;-61
2022/05/27 13:54:43;;;;;;;;;;;22.60;44.10;;;;;;5057152;28;19908;-61
2022/05/27 13:57:09;;;;;;;;;;;22.60;44.00;;;;;;5075264;28;19978;-61
2022/05/27 13:59:42;;;;;;;;;;;22.60;44.00;;;;;;5073656;28;20380;-61
2022/05/27 14:02:13;;;;;;;;;;;22.60;44.00;;;;;;5073495;28;19999;-60
2022/05/27 14:04:50;;;;;;;;;;;22.60;43.90;;;;;;5073507;28;19914;-61
2022/05/27 14:07:35;;;;;;;;;;;22.70;44.00;;;;;;5074750;28;20010;-61
2022/05/27 14:10:03;;;;;;;;;;;22.60;43.80;;;;;;5074062;28;20098;-61
2022/05/27 14:12:29;;;;;;;;;;;22.70;43.90;;;;;;5073344;28;19963;-61
2022/05/27 14:14:55;;;;;;;;;;;22.70;43.90;;;;;;5074530;28;20019;-61
2022/05/27 14:17:21;;;;;;;;;;;22.70;44.00;;;;;;5074423;28;19920;-61
2022/05/27 14:19:57;;;;;;;;;;;22.60;44.00;;;;;;5073221;28;19916;-61
2022/05/27 14:22:42;;;;;;;;;;;22.60;44.10;;;;;;5073330;28;19912;-61
2022/05/27 14:25:19;;;;;;;;;;;22.60;44.00;;;;;;5074419;28;19962;-61
2022/05/27 14:27:49;;;;;;;;;;;22.60;43.90;;;;;;5074375;28;19913;-61
2022/05/27 14:30:16;;;;;;;;;;;22.70;43.80;;;;;;5072865;28;19936;-61
2022/05/27 14:32:42;;;;;;;;;;;22.70;43.90;;;;;;5074188;28;19908;-61
2022/05/27 14:35:07;;;;;;;;;;;22.60;43.90;;;;;;5074264;28;19915;-61
2022/05/27 14:37:46;;;;;;;;;;;22.60;44.10;;;;;;5074105;28;19954;-61
2022/05/27 14:40:13;;;;;;;;;;;22.60;44.00;;;;;;5072714;28;19908;-61
2022/05/27 14:42:39;;;;;;;;;;;22.60;43.90;;;;;;5072642;28;19913;-61
2022/05/27 14:45:11;;;;;;;;;;;22.60;44.00;;;;;;5072809;28;20031;-61
2022/05/27 14:47:36;;;;;;;;;;;22.60;44.00;;;;;;5080602;28;19977;-61
2022/05/27 14:50:11;;;;;;;;;;;22.60;43.80;;;;;;5073957;28;20444;-61
2022/05/27 14:52:37;;;;;;;;;;;22.70;43.70;;;;;;5073788;28;19908;-61